Time;durP1;ratioP1;P1;durP2;ratioP2;P2;SDS_P1;SDS_P2;PMS_P1;PMS_P2;Temp;Humidity;BMP_temperature;BMP_pressure;BME280_temperature;BME280_humidity;BME280_pressure;Samples;Min_cycle;Max_cycle;Signal;HPM_P1;HPM_P2
2021/07/18 00:01:43;;;;;;;6.78;3.25;;;;;;;16.64;83.48;101678.13;5034909;28;20029;-80
2021/07/18 00:04:09;;;;;;;10.32;4.18;;;;;;;16.54;83.94;101682.94;5034611;28;20036;-79
2021/07/18 00:06:35;;;;;;;10.50;3.47;;;;;;;16.59;83.82;101685.91;5034463;28;20041;-80
2021/07/18 00:09:01;;;;;;;9.27;4.72;;;;;;;16.48;84.78;101677.41;5052079;28;20036;-80
2021/07/18 00:11:26;;;;;;;12.40;4.45;;;;;;;16.57;84.34;101673.66;5051466;28;20056;-80
2021/07/18 00:13:52;;;;;;;8.27;3.90;;;;;;;16.47;84.60;101684.66;5051919;28;20033;-80
2021/07/18 00:16:17;;;;;;;11.30;3.90;;;;;;;16.40;84.77;101672.91;5034245;28;20036;-80
2021/07/18 00:18:42;;;;;;;8.57;3.30;;;;;;;16.37;85.24;101674.13;5050776;28;20036;-83
2021/07/18 00:21:08;;;;;;;10.80;3.97;;;;;;;16.34;85.81;101673.63;5051871;28;20041;-80
2021/07/18 00:23:33;;;;;;;10.83;4.23;;;;;;;16.41;85.20;101683.53;5050672;28;20029;-81
2021/07/18 00:25:59;;;;;;;14.63;4.37;;;;;;;16.37;85.23;101675.97;5050633;28;20106;-80
2021/07/18 00:28:24;;;;;;;6.37;3.07;;;;;;;16.28;85.61;101671.66;5050397;28;20037;-80
2021/07/18 00:30:49;;;;;;;7.40;4.00;;;;;;;16.24;85.64;101669.28;5050871;28;20108;-80
2021/07/18 00:33:15;;;;;;;8.63;3.60;;;;;;;16.22;85.76;101686.66;5050544;28;20355;-80
2021/07/18 00:35:40;;;;;;;6.77;3.50;;;;;;;16.30;85.87;101691.19;5051702;28;20469;-80
2021/07/18 00:38:06;;;;;;;7.10;3.23;;;;;;;16.31;85.65;101688.28;5033963;28;20036;-80
2021/07/18 00:40:31;;;;;;;9.37;4.03;;;;;;;16.07;86.13;101672.28;5067153;28;20455;-80
2021/07/18 00:42:57;;;;;;;11.45;4.38;;;;;;;16.09;86.60;101679.16;5050935;28;20041;-80
2021/07/18 00:45:22;;;;;;;8.23;3.43;;;;;;;16.07;86.26;101678.50;5033666;28;20025;-80
2021/07/18 00:47:48;;;;;;;8.10;4.10;;;;;;;16.19;86.21;101692.41;5033715;28;20178;-81
2021/07/18 00:50:16;;;;;;;9.85;4.70;;;;;;;16.10;86.33;101682.69;5050122;28;20036;-80
2021/07/18 00:52:42;;;;;;;7.25;3.92;;;;;;;15.99;86.61;101676.69;5050378;28;20028;-81
2021/07/18 00:55:09;;;;;;;12.73;3.65;;;;;;;16.00;86.64;101674.81;5050970;28;20469;-80
2021/07/18 00:57:36;;;;;;;9.27;3.40;;;;;;;16.02;86.46;101670.94;5050981;28;20048;-79
2021/07/18 01:00:05;;;;;;;8.23;4.78;;;;;;;16.00;86.58;101670.28;5050012;28;20060;-79
2021/07/18 01:02:31;;;;;;;15.63;3.90;;;;;;;16.00;86.69;101672.13;5050064;28;20036;-80
2021/07/18 01:04:56;;;;;;;7.67;3.97;;;;;;;16.06;86.49;101684.91;5057796;28;20028;-79
2021/07/18 01:07:22;;;;;;;12.43;3.87;;;;;;;16.07;86.21;101678.50;5069763;28;20624;-79
2021/07/18 01:09:48;;;;;;;6.65;3.28;;;;;;;15.99;86.78;101668.63;5070632;28;20111;-79
2021/07/18 01:12:14;;;;;;;7.65;3.58;;;;;;;16.01;86.66;101669.28;5070793;28;20051;-80
2021/07/18 01:14:40;;;;;;;8.40;4.20;;;;;;;15.98;86.67;101656.13;5069708;28;20453;-80
2021/07/18 01:17:05;;;;;;;6.63;3.20;;;;;;;16.01;86.54;101684.56;5053151;28;20037;-79
2021/07/18 01:19:33;;;;;;;10.50;5.23;;;;;;;16.01;86.56;101677.34;5068948;28;20030;-80
2021/07/18 01:22:00;;;;;;;9.73;4.10;;;;;;;15.97;86.82;101659.88;5069696;28;20032;-80
2021/07/18 01:24:27;;;;;;;11.07;3.53;;;;;;;15.90;87.52;101661.59;5069766;28;20097;-79
2021/07/18 01:26:53;;;;;;;13.27;4.45;;;;;;;15.88;87.28;101660.09;5070175;28;20024;-79
2021/07/18 01:29:19;;;;;;;10.80;3.50;;;;;;;15.86;87.29;101654.03;5053204;28;20035;-80
2021/07/18 01:31:45;;;;;;;11.52;4.20;;;;;;;15.89;87.61;101673.34;5069261;28;20036;-80
2021/07/18 01:34:10;;;;;;;8.67;3.67;;;;;;;15.95;87.17;101666.44;5070670;28;20036;-81
2021/07/18 01:36:35;;;;;;;11.20;3.80;;;;;;;15.90;87.31;101658.06;5070157;28;20111;-80
2021/07/18 01:39:06;;;;;;;10.20;4.07;;;;;;;16.01;87.19;101669.28;5069774;28;20060;-79
2021/07/18 01:41:31;;;;;;;9.88;4.20;;;;;;;15.94;87.36;101665.59;5068550;28;20590;-80
2021/07/18 01:43:57;;;;;;;17.00;4.32;;;;;;;15.88;87.76;101652.00;5070503;28;20024;-80
2021/07/18 01:46:22;;;;;;;14.97;4.57;;;;;;;15.82;87.89;101656.22;5052243;28;20468;-78
2021/07/18 01:48:52;;;;;;;7.90;4.13;;;;;;;15.78;87.94;101666.50;5069716;28;20044;-80
2021/07/18 01:51:22;;;;;;;12.98;3.72;;;;;;;15.79;88.18;101668.19;5069446;28;20046;-79
2021/07/18 01:53:52;;;;;;;8.60;4.68;;;;;;;15.80;88.06;101661.78;5069504;28;20127;-79
2021/07/18 01:56:21;;;;;;;6.70;4.00;;;;;;;15.82;88.02;101669.69;5069071;28;20040;-80
2021/07/18 01:58:48;;;;;;;8.68;3.60;;;;;;;15.81;88.19;101666.16;5069487;28;20111;-81
2021/07/18 02:01:14;;;;;;;10.73;4.15;;;;;;;15.77;87.78;101651.34;5069533;28;20467;-79
2021/07/18 02:03:40;;;;;;;8.10;4.03;;;;;;;15.76;87.78;101655.06;5069177;28;20055;-79
2021/07/18 02:06:05;;;;;;;10.03;4.27;;;;;;;15.68;88.34;101656.91;5069185;28;20024;-80
2021/07/18 02:08:30;;;;;;;8.07;4.20;;;;;;;15.76;88.53;101662.31;5069005;28;20067;-79
2021/07/18 02:10:56;;;;;;;9.73;4.80;;;;;;;15.64;88.62;101653.75;5069530;28;20106;-80
2021/07/18 02:13:21;;;;;;;10.03;5.77;;;;;;;15.73;88.61;101663.50;5068977;28;20029;-79
2021/07/18 02:15:47;;;;;;;10.67;4.60;;;;;;;15.70;88.69;101661.16;5068396;28;20059;-79
2021/07/18 02:18:13;;;;;;;6.33;4.00;;;;;;;15.71;88.54;101660.16;5069812;28;20090;-79
2021/07/18 02:20:38;;;;;;;17.50;6.10;;;;;;;15.63;88.57;101662.81;5070164;28;20028;-80
2021/07/18 02:23:04;;;;;;;11.33;4.17;;;;;;;15.69;88.94;101683.69;5068814;28;20032;-79
2021/07/18 02:25:30;;;;;;;14.50;4.68;;;;;;;15.63;89.12;101677.13;5068908;28;20037;-79
2021/07/18 02:27:55;;;;;;;10.82;4.45;;;;;;;15.63;89.07;101673.59;5069619;28;20028;-79
2021/07/18 02:30:23;;;;;;;11.73;4.27;;;;;;;15.66;89.19;101715.47;5070029;28;20409;-79
2021/07/18 02:32:51;;;;;;;10.35;3.90;;;;;;;15.67;89.11;101709.09;5069654;28;20441;-79
2021/07/18 02:35:18;;;;;;;11.90;4.53;;;;;;;15.58;89.35;101706.41;5069854;28;20024;-79
2021/07/18 02:37:45;;;;;;;12.35;4.65;;;;;;;15.58;89.59;101702.88;5068779;28;20041;-79
2021/07/18 02:40:13;;;;;;;10.30;4.40;;;;;;;15.53;89.61;101698.00;5068525;28;20127;-80
2021/07/18 02:42:38;;;;;;;11.77;4.45;;;;;;;15.61;89.49;101692.59;5068413;28;20035;-80
2021/07/18 02:45:12;;;;;;;18.92;4.53;;;;;;;15.55;89.74;101687.09;5069443;28;20041;-79
2021/07/18 02:47:38;;;;;;;10.10;4.95;;;;;;;15.63;89.62;101695.97;5069558;28;20522;-80
2021/07/18 02:50:08;;;;;;;8.85;4.80;;;;;;;15.69;89.75;101710.59;5068665;28;20095;-79
2021/07/18 02:52:34;;;;;;;11.15;4.65;;;;;;;15.63;89.80;101713.97;5051766;28;20052;-80
2021/07/18 02:55:00;;;;;;;9.97;5.40;;;;;;;15.55;90.04;101720.22;5072293;28;20040;-79
2021/07/18 02:57:25;;;;;;;13.13;4.75;;;;;;;15.63;90.07;101708.59;5072208;28;20037;-79
2021/07/18 02:59:51;;;;;;;13.67;5.23;;;;;;;15.68;90.08;101711.59;5073053;28;20039;-79
2021/07/18 03:02:16;;;;;;;11.17;5.20;;;;;;;15.63;89.85;101711.28;5073210;28;20115;-80
2021/07/18 03:04:42;;;;;;;8.60;4.37;;;;;;;15.62;90.09;101705.06;5071518;28;20393;-79
2021/07/18 03:07:07;;;;;;;15.23;5.50;;;;;;;15.63;90.14;101697.81;5072997;28;20040;-79
2021/07/18 03:09:32;;;;;;;13.47;5.77;;;;;;;15.58;90.37;101709.09;5072740;28;20047;-79
2021/07/18 03:11:58;;;;;;;4.53;3.67;;;;;;;15.58;90.58;101710.94;5072996;28;20036;-79
2021/07/18 03:14:23;;;;;;;19.63;5.13;;;;;;;15.57;90.23;101706.59;5073002;28;20028;-80
2021/07/18 03:16:48;;;;;;;15.33;5.70;;;;;;;15.61;90.37;101703.34;5071633;28;20516;-80
2021/07/18 03:19:14;;;;;;;7.40;4.93;;;;;;;15.60;90.79;101696.31;5071997;28;20384;-79
2021/07/18 03:21:40;;;;;;;10.73;4.95;;;;;;;15.58;90.42;101692.13;5071634;28;20442;-79
2021/07/18 03:24:05;;;;;;;16.77;6.57;;;;;;;15.56;90.77;101689.59;5071652;28;20436;-79
2021/07/18 03:26:31;;;;;;;18.33;6.20;;;;;;;15.57;90.75;101690.44;5072389;28;20393;-79
2021/07/18 03:28:56;;;;;;;15.67;5.80;;;;;;;15.56;90.75;101692.28;5071939;28;20021;-79
2021/07/18 03:31:22;;;;;;;12.00;5.80;;;;;;;15.55;91.18;101690.63;5072337;28;20036;-80
2021/07/18 03:33:47;;;;;;;12.43;5.60;;;;;;;15.59;91.23;101691.09;5071706;28;20374;-79
2021/07/18 03:36:13;;;;;;;8.83;6.03;;;;;;;15.60;91.15;101695.47;5070949;28;20056;-79
2021/07/18 03:38:39;;;;;;;11.73;5.68;;;;;;;15.63;90.95;101684.34;5072306;28;20087;-78
2021/07/18 03:41:04;;;;;;;10.83;5.53;;;;;;;15.64;91.09;101688.75;5070891;28;20068;-79
2021/07/18 03:43:31;;;;;;;9.80;6.13;;;;;;;15.61;91.14;101689.91;5071508;28;20098;-79
2021/07/18 03:45:57;;;;;;;18.33;6.57;;;;;;;15.58;91.00;101692.94;5054159;28;20504;-79
2021/07/18 03:48:22;;;;;;;7.93;5.07;;;;;;;15.62;91.19;101693.47;5071569;28;20072;-79
2021/07/18 03:50:49;;;;;;;15.10;6.17;;;;;;;15.70;91.31;101706.03;5071269;28;20030;-79
2021/07/18 03:53:14;;;;;;;14.60;5.60;;;;;;;15.69;90.92;101707.91;5070985;28;20376;-79
2021/07/18 03:55:40;;;;;;;10.88;5.65;;;;;;;15.71;91.14;101710.44;5054429;28;20045;-79
2021/07/18 03:58:05;;;;;;;9.13;5.83;;;;;;;15.80;91.19;101720.16;5071672;28;20021;-80
2021/07/18 04:00:31;;;;;;;10.17;6.63;;;;;;;15.84;90.84;101708.03;5054468;28;20041;-79
2021/07/18 04:02:56;;;;;;;13.07;6.20;;;;;;;15.84;90.97;101694.59;5054246;28;20038;-79
2021/07/18 04:05:21;;;;;;;9.73;5.43;;;;;;;15.83;90.72;101687.53;5071320;28;20473;-79
2021/07/18 04:07:47;;;;;;;10.00;4.80;;;;;;;15.91;90.65;101684.78;5070370;28;20080;-80
2021/07/18 04:10:12;;;;;;;9.60;5.00;;;;;;;15.89;90.69;101694.91;5071026;28;20086;-80
2021/07/18 04:12:38;;;;;;;9.07;5.20;;;;;;;15.96;90.85;101684.25;5070642;28;20035;-78
2021/07/18 04:15:04;;;;;;;10.50;4.80;;;;;;;15.98;90.58;101677.69;5054095;28;20205;-79
2021/07/18 04:17:30;;;;;;;12.15;5.53;;;;;;;16.00;90.62;101681.06;5053690;28;20056;-80
2021/07/18 04:19:55;;;;;;;14.10;5.57;;;;;;;16.09;90.29;101692.63;5070600;28;20598;-79
2021/07/18 04:22:21;;;;;;;8.48;5.20;;;;;;;16.14;90.07;101692.09;5070591;28;20064;-79
2021/07/18 04:24:46;;;;;;;13.47;5.47;;;;;;;16.13;90.17;101685.03;5070485;28;20039;-79
2021/07/18 04:27:11;;;;;;;9.40;4.80;;;;;;;16.15;90.18;101691.91;5070395;28;20029;-79
2021/07/18 04:29:37;;;;;;;10.13;4.83;;;;;;;16.23;90.04;101694.56;5070365;28;20505;-79
2021/07/18 04:32:02;;;;;;;8.30;4.57;;;;;;;16.19;89.83;101687.84;5070439;28;20028;-78
2021/07/18 04:34:28;;;;;;;13.83;6.10;;;;;;;16.35;89.99;101704.97;5069971;28;20115;-80
2021/07/18 04:36:53;;;;;;;13.07;5.57;;;;;;;16.33;89.43;101696.22;5070085;28;20048;-79
2021/07/18 04:39:18;;;;;;;12.30;4.90;;;;;;;16.33;89.83;101691.66;5070955;28;20060;-79
2021/07/18 04:41:44;;;;;;;14.97;5.10;;;;;;;16.35;89.81;101686.94;5053547;28;20446;-79
2021/07/18 04:44:09;;;;;;;8.33;5.00;;;;;;;16.45;89.08;101694.78;5069660;28;20389;-79
2021/07/18 04:46:35;;;;;;;9.93;5.10;;;;;;;16.54;89.48;101700.97;5069479;28;20089;-79
2021/07/18 04:49:00;;;;;;;7.77;4.20;;;;;;;16.64;88.71;101707.78;5068354;28;20387;-80
2021/07/18 04:51:25;;;;;;;8.60;4.37;;;;;;;16.62;88.96;101698.19;5069701;28;20036;-79
2021/07/18 04:53:51;;;;;;;8.60;4.33;;;;;;;16.78;88.77;101713.44;5068279;28;20241;-80
2021/07/18 04:56:17;;;;;;;7.40;4.53;;;;;;;16.81;87.90;101700.47;5068905;28;20032;-79
2021/07/18 04:58:43;;;;;;;6.88;3.78;;;;;;;16.91;88.62;101710.19;5069416;28;20173;-79
2021/07/18 05:01:08;;;;;;;7.97;3.93;;;;;;;17.04;87.67;101705.00;5068949;28;20137;-79
2021/07/18 05:03:35;;;;;;;11.13;3.67;;;;;;;17.25;86.79;101715.09;5053098;28;20449;-79
2021/07/18 05:06:05;;;;;;;9.55;3.75;;;;;;;17.30;85.70;101704.56;5068982;28;20082;-79
2021/07/18 05:08:31;;;;;;;10.60;3.60;;;;;;;17.31;85.36;101711.66;5070722;28;20033;-79
2021/07/18 05:10:56;;;;;;;10.85;4.35;;;;;;;17.33;85.55;101698.84;5069540;28;20051;-78
2021/07/18 05:13:21;;;;;;;6.70;3.50;;;;;;;17.66;84.95;101710.13;5052913;28;20075;-79
2021/07/18 05:15:47;;;;;;;7.17;3.67;;;;;;;17.70;83.03;101699.81;5051298;28;20036;-80
2021/07/18 05:18:14;;;;;;;6.47;2.73;;;;;;;17.92;82.60;101716.94;5067846;28;20055;-80
2021/07/18 05:20:40;;;;;;;6.30;3.28;;;;;;;17.94;81.50;101704.09;5069107;28;20101;-80
2021/07/18 05:23:07;;;;;;;6.63;3.13;;;;;;;18.18;80.91;101710.22;5070581;28;20047;-78
2021/07/18 05:25:33;;;;;;;;;;;;;;;18.18;80.60;101708.34;5069688;28;20075;-79
2021/07/18 05:27:59;;;;;;;10.15;2.80;;;;;;;18.45;79.52;101720.31;5070258;28;20017;-80
2021/07/18 05:30:24;;;;;;;11.33;3.00;;;;;;;18.42;78.64;101709.84;5070468;28;20108;-79
2021/07/18 05:32:49;;;;;;;8.50;2.77;;;;;;;18.55;77.59;101709.19;5068978;28;20290;-80
2021/07/18 05:35:15;;;;;;;11.33;3.60;;;;;;;19.01;76.15;101729.63;5068594;28;20032;-79
2021/07/18 05:37:40;;;;;;;4.80;2.10;;;;;;;19.68;74.10;101734.53;5060445;28;20040;-79
2021/07/18 05:40:08;;;;;;;5.10;2.53;;;;;;;20.47;72.00;101735.97;5068706;28;20032;-79
2021/07/18 05:42:34;;;;;;;6.05;2.80;;;;;;;20.68;68.91;101739.59;5065981;28;20354;-79
2021/07/18 05:45:00;;;;;;;5.15;2.22;;;;;;;21.26;67.84;101739.88;5067833;28;20464;-79
2021/07/18 05:47:26;;;;;;;6.25;2.75;;;;;;;22.01;64.77;101726.78;5068148;28;20036;-79
2021/07/18 05:49:52;;;;;;;3.72;2.50;;;;;;;21.70;65.15;101724.78;5067853;28;20036;-79
2021/07/18 05:52:18;;;;;;;5.43;2.03;;;;;;;21.88;63.53;101749.41;5067399;28;20036;-78
2021/07/18 05:54:43;;;;;;;10.63;2.63;;;;;;;21.68;63.99;101726.84;5051214;28;20032;-78
2021/07/18 05:57:08;;;;;;;7.23;2.43;;;;;;;21.73;64.35;101729.81;5068815;28;20029;-80
2021/07/18 05:59:34;;;;;;;7.63;2.63;;;;;;;21.33;65.12;101720.81;5069142;28;20033;-79
2021/07/18 06:01:59;;;;;;;6.33;2.07;;;;;;;21.06;65.57;101724.38;5068932;28;20227;-80
2021/07/18 06:04:25;;;;;;;6.78;2.65;;;;;;;20.55;67.22;101716.78;5069695;28;20032;-79
2021/07/18 06:06:51;;;;;;;5.53;2.60;;;;;;;20.60;67.01;101714.34;5068724;28;20128;-80
2021/07/18 06:09:17;;;;;;;9.00;3.00;;;;;;;21.17;66.15;101738.41;5069840;28;20446;-79
2021/07/18 06:11:42;;;;;;;4.80;2.28;;;;;;;21.54;65.90;101738.81;5067709;28;20043;-80
2021/07/18 06:14:08;;;;;;;5.70;2.07;;;;;;;22.47;62.77;101752.13;5068216;28;20036;-79
2021/07/18 06:16:33;;;;;;;5.87;2.47;;;;;;;22.09;62.62;101733.88;5067433;28;20036;-79
2021/07/18 06:18:58;;;;;;;6.57;2.27;;;;;;;22.00;63.45;101727.00;5067825;28;20093;-79
2021/07/18 06:21:24;;;;;;;5.73;2.83;;;;;;;22.84;61.47;101744.16;5049466;28;20048;-80
2021/07/18 06:23:49;;;;;;;8.80;2.60;;;;;;;23.43;59.96;101744.78;5065694;28;20286;-79
2021/07/18 06:26:15;;;;;;;14.43;2.50;;;;;;;22.89;58.64;101742.44;5066544;28;20115;-79
2021/07/18 06:28:40;;;;;;;6.07;2.47;;;;;;;22.07;60.77;101725.91;5070506;28;20106;-79
2021/07/18 06:31:06;;;;;;;6.35;2.85;;;;;;;22.66;58.82;101742.19;5054356;28;20413;-79
2021/07/18 06:33:31;;;;;;;5.90;2.50;;;;;;;22.56;58.42;101739.94;5070842;28;20079;-78
2021/07/18 06:35:57;;;;;;;9.00;2.40;;;;;;;21.82;60.53;101733.09;5072007;28;20458;-79
2021/07/18 06:38:22;;;;;;;5.97;2.42;;;;;;;21.82;63.04;101736.69;5072122;28;20060;-80
2021/07/18 06:40:47;;;;;;;7.57;2.20;;;;;;;22.67;59.70;101757.47;5072062;28;20032;-79
2021/07/18 06:43:14;;;;;;;6.83;2.17;;;;;;;22.87;57.49;101744.56;5073535;28;20133;-80
2021/07/18 06:45:39;;;;;;;4.93;3.15;;;;;;;23.27;57.92;101740.72;5073065;28;20083;-79
2021/07/18 06:48:05;;;;;;;5.43;2.20;;;;;;;23.87;56.45;101751.91;5072222;28;20052;-77
2021/07/18 06:50:30;;;;;;;5.15;1.95;;;;;;;23.73;55.46;101744.91;5072181;28;20460;-78
2021/07/18 06:52:55;;;;;;;5.30;2.15;;;;;;;23.78;55.78;101754.06;5055719;28;20051;-78
2021/07/18 06:55:21;;;;;;;3.97;2.07;;;;;;;23.48;56.62;101737.56;5071703;28;20024;-78
2021/07/18 06:57:48;;;;;;;5.43;2.00;;;;;;;24.18;55.20;101753.63;5072015;28;20044;-78
2021/07/18 07:00:14;;;;;;;4.80;1.83;;;;;;;24.10;53.38;101750.38;5072122;28;20102;-75
2021/07/18 07:02:39;;;;;;;9.82;2.28;;;;;;;23.65;54.08;101742.44;5072018;28;20028;-78
2021/07/18 07:05:05;;;;;;;6.47;1.90;;;;;;;23.53;54.80;101748.66;5072742;28;20040;-77
2021/07/18 07:07:30;;;;;;;3.67;2.15;;;;;;;23.71;55.64;101750.56;5072843;28;20039;-77
2021/07/18 07:09:56;;;;;;;5.43;2.00;;;;;;;24.06;54.17;101746.44;5072690;28;20400;-77
2021/07/18 07:12:21;;;;;;;6.00;2.60;;;;;;;23.80;54.57;101745.69;5072986;28;20420;-78
2021/07/18 07:14:46;;;;;;;5.10;2.83;;;;;;;24.13;54.31;101749.91;5072092;28;20036;-78
2021/07/18 07:17:12;;;;;;;4.03;1.73;;;;;;;24.32;54.05;101735.19;5071447;28;20039;-78
2021/07/18 07:19:37;;;;;;;2.93;1.73;;;;;;;23.89;52.77;101733.41;5071844;28;20063;-79
2021/07/18 07:22:03;;;;;;;6.40;1.93;;;;;;;23.75;54.64;101738.19;5072515;28;20283;-78
2021/07/18 07:24:28;;;;;;;6.95;2.60;;;;;;;24.32;51.97;101754.28;5071619;28;20984;-77
2021/07/18 07:26:54;;;;;;;6.43;2.22;;;;;;;23.53;53.02;101745.94;5054474;28;20484;-79
2021/07/18 07:29:19;;;;;;;5.75;2.80;;;;;;;24.02;53.78;101749.63;5071689;28;20039;-78
2021/07/18 07:31:45;;;;;;;8.88;2.40;;;;;;;23.57;54.12;101740.84;5054642;28;20034;-78
2021/07/18 07:34:10;;;;;;;4.93;1.67;;;;;;;23.97;52.21;101741.28;5072420;28;20074;-78
2021/07/18 07:36:36;;;;;;;5.40;2.37;;;;;;;23.42;54.15;101732.22;5071128;28;20069;-77
2021/07/18 07:39:03;;;;;;;5.90;1.95;;;;;;;23.80;52.63;101742.97;5071613;28;20025;-77
2021/07/18 07:41:28;;;;;;;5.68;1.90;;;;;;;22.79;55.86;101727.66;5072073;28;20028;-77
2021/07/18 07:43:57;;;;;;;8.33;1.70;;;;;;;23.17;56.06;101733.06;5072311;28;20381;-77
2021/07/18 07:46:23;;;;;;;6.50;2.05;;;;;;;22.85;56.79;101729.50;5072011;28;20024;-77
2021/07/18 07:48:48;;;;;;;5.72;2.10;;;;;;;23.09;56.73;101734.16;5072418;28;20436;-77
2021/07/18 07:51:13;;;;;;;5.53;1.90;;;;;;;23.76;55.03;101739.88;5072569;28;20044;-76
2021/07/18 07:53:39;;;;;;;5.73;1.97;;;;;;;23.34;54.73;101730.59;5071473;28;20028;-77
2021/07/18 07:56:04;;;;;;;2.77;1.53;;;;;;;23.82;56.15;101740.84;5071076;28;20490;-77
2021/07/18 07:58:30;;;;;;;4.30;1.98;;;;;;;23.55;55.09;101737.53;5071253;28;20040;-76
2021/07/18 08:00:55;;;;;;;5.25;2.35;;;;;;;23.69;55.13;101738.22;5072169;28;20020;-77
2021/07/18 08:03:21;;;;;;;6.15;2.60;;;;;;;23.73;56.07;101734.00;5071585;28;20107;-77
2021/07/18 08:05:47;;;;;;;7.88;1.90;;;;;;;24.18;52.01;101737.25;5070721;28;20445;-77
2021/07/18 08:08:12;;;;;;;10.00;2.28;;;;;;;24.32;53.41;101729.72;5070617;28;20079;-76
2021/07/18 08:10:38;;;;;;;6.13;1.77;;;;;;;23.46;56.80;101726.09;5070702;28;20036;-77
2021/07/18 08:13:04;;;;;;;4.93;2.63;;;;;;;23.93;53.23;101744.72;5070842;28;20109;-77
2021/07/18 08:15:29;;;;;;;3.35;1.85;;;;;;;24.12;52.11;101726.44;5071292;28;20477;-77
2021/07/18 08:17:55;;;;;;;4.07;1.70;;;;;;;24.57;53.39;101721.44;5070601;28;20031;-76
2021/07/18 08:20:23;;;;;;;6.18;1.95;;;;;;;24.42;53.68;101727.31;5070495;28;20032;-77
2021/07/18 08:22:51;;;;;;;5.35;1.83;;;;;;;24.31;54.00;101713.59;5071658;28;20054;-76
2021/07/18 08:25:18;;;;;;;8.85;2.70;;;;;;;24.47;52.52;101718.44;5070169;28;20031;-77
2021/07/18 08:27:44;;;;;;;6.55;2.00;;;;;;;24.44;52.46;101714.25;5071448;28;20040;-77
2021/07/18 08:30:11;;;;;;;3.53;1.80;;;;;;;24.19;53.22;101710.81;5070256;28;20135;-76
2021/07/18 08:32:36;;;;;;;2.33;1.60;;;;;;;24.13;55.44;101718.00;5053856;28;20028;-77
2021/07/18 08:35:03;;;;;;;6.00;2.40;;;;;;;24.44;53.14;101714.25;5070964;28;20034;-77
2021/07/18 08:37:29;;;;;;;3.47;2.33;;;;;;;24.08;52.27;101704.25;5071170;28;20079;-78
2021/07/18 08:39:54;;;;;;;6.25;2.22;;;;;;;24.69;51.68;101717.91;5070032;28;20048;-77
2021/07/18 08:42:20;;;;;;;3.93;1.63;;;;;;;25.27;52.58;101717.22;5070200;28;20426;-77
2021/07/18 08:44:46;;;;;;;4.80;2.00;;;;;;;25.08;50.40;101707.44;5053476;28;20032;-77
2021/07/18 08:47:12;;;;;;;3.63;1.80;;;;;;;24.87;52.84;101698.72;5069866;28;20416;-77
2021/07/18 08:49:38;;;;;;;4.63;1.63;;;;;;;24.98;51.39;101703.38;5070569;28;20469;-77
2021/07/18 08:52:05;;;;;;;4.85;2.17;;;;;;;24.94;52.55;101709.56;5070305;28;20107;-78
2021/07/18 08:54:34;;;;;;;5.03;1.85;;;;;;;26.13;49.50;101712.00;5070052;28;20028;-78
2021/07/18 08:57:01;;;;;;;8.05;2.05;;;;;;;25.57;51.01;101699.84;5069572;28;20032;-78
2021/07/18 08:59:27;;;;;;;;;;;;;;;26.01;50.44;101706.56;5069955;28;20132;-77
2021/07/18 09:01:53;;;;;;;4.10;1.88;;;;;;;26.45;49.34;101711.50;5069570;28;19959;-77
2021/07/18 09:04:18;;;;;;;2.97;1.58;;;;;;;25.81;49.69;101696.00;5070884;28;20057;-77
2021/07/18 09:06:49;;;;;;;5.15;2.05;;;;;;;25.66;50.34;101699.25;5070343;28;20059;-76
2021/07/18 09:09:17;;;;;;;4.90;1.60;;;;;;;26.64;48.40;101692.97;5070502;28;20040;-76
2021/07/18 09:11:52;;;;;;;2.78;1.92;;;;;;;25.63;48.43;101688.78;5070383;28;20425;-76
2021/07/18 09:14:18;;;;;;;4.63;1.65;;;;;;;25.56;47.93;101688.06;5053045;28;20031;-76
2021/07/18 09:16:44;;;;;;;6.60;2.58;;;;;;;25.63;48.25;101699.72;5052720;28;20036;-76
2021/07/18 09:19:30;;;;;;;7.95;1.80;;;;;;;26.27;47.23;101704.31;5069498;28;20024;-76
2021/07/18 09:22:05;;;;;;;8.10;2.30;;;;;;;26.89;45.32;101700.81;5052999;28;20071;-75
2021/07/18 09:24:41;;;;;;;6.00;2.33;;;;;;;25.78;46.55;101684.69;5069672;28;20044;-76
2021/07/18 09:27:10;;;;;;;;;;;;;;;26.02;48.65;101691.81;5069784;28;20041;-76
2021/07/18 09:29:37;;;;;;;1.98;1.58;;;;;;;26.85;46.23;101705.13;5070367;28;20365;-76
2021/07/18 09:32:05;;;;;;;5.47;2.13;;;;;;;26.54;45.80;101682.69;5070623;28;20040;-76
2021/07/18 09:34:36;;;;;;;5.70;1.50;;;;;;;27.68;45.80;101703.41;5052376;28;20036;-76
2021/07/18 09:37:06;;;;;;;4.45;1.30;;;;;;;27.33;46.11;101688.09;5070341;28;20047;-76
2021/07/18 09:39:31;;;;;;;3.05;1.77;;;;;;;26.07;48.14;101683.69;5069133;28;20064;-76
2021/07/18 09:41:57;;;;;;;4.17;2.13;;;;;;;26.35;48.05;101684.78;5069901;28;20105;-76
2021/07/18 09:44:24;;;;;;;4.43;1.83;;;;;;;26.29;47.35;101669.31;5052413;28;20036;-76
2021/07/18 09:46:49;;;;;;;;;;;;;;;25.56;46.56;101674.41;5069525;28;20186;-76
2021/07/18 09:49:32;;;;;;;5.57;1.65;;;;;;;26.24;46.55;101691.94;5052556;28;20003;-76
2021/07/18 09:52:18;;;;;;;6.20;1.95;;;;;;;25.17;48.94;101668.59;5069276;28;20043;-76
2021/07/18 09:54:45;;;;;;;5.68;1.60;;;;;;;25.31;49.06;101679.28;5069075;28;20132;-76
2021/07/18 09:57:27;;;;;;;5.32;1.95;;;;;;;24.87;51.08;101663.22;5051988;28;20146;-75
2021/07/18 09:59:53;;;;;;;2.83;1.67;;;;;;;25.56;49.82;101679.88;5070174;28;20424;-76
2021/07/18 10:02:26;;;;;;;8.13;2.22;;;;;;;26.41;48.27;101681.06;5068795;28;20112;-76
2021/07/18 10:04:53;;;;;;;4.53;1.80;;;;;;;25.65;49.39;101664.75;5052252;28;20040;-76
2021/07/18 10:07:21;;;;;;;5.20;1.80;;;;;;;25.90;48.83;101661.75;5052116;28;20047;-76
2021/07/18 10:09:46;;;;;;;7.72;2.00;;;;;;;25.41;49.47;101663.16;5068969;28;20063;-76
2021/07/18 10:12:13;;;;;;;5.97;1.40;;;;;;;25.45;49.80;101669.78;5069944;28;20457;-76
2021/07/18 10:14:38;;;;;;;;;;;;;;;25.68;49.37;101668.91;5069402;28;20343;-77
2021/07/18 10:17:04;;;;;;;4.15;1.75;;;;;;;25.27;50.21;101673.50;5051972;28;19999;-76
2021/07/18 10:19:31;;;;;;;4.88;1.50;;;;;;;24.73;51.00;101657.16;5069061;28;20024;-76
2021/07/18 10:21:57;;;;;;;5.13;1.77;;;;;;;25.41;50.62;101671.34;5068394;28;20093;-76
2021/07/18 10:24:26;;;;;;;4.75;1.70;;;;;;;26.09;46.81;101656.09;5068710;28;20354;-76
2021/07/18 10:26:52;;;;;;;5.93;1.80;;;;;;;26.70;46.39;101664.63;5068502;28;20032;-76
2021/07/18 10:29:17;;;;;;;3.38;1.90;;;;;;;26.25;48.02;101658.06;5068764;28;20028;-76
2021/07/18 10:31:51;;;;;;;3.75;1.40;;;;;;;26.36;46.74;101661.78;5068499;28;20296;-76
2021/07/18 10:34:18;;;;;;;4.38;1.75;;;;;;;25.57;47.86;101654.22;5068488;28;20128;-77
2021/07/18 10:36:44;;;;;;;4.07;1.50;;;;;;;25.50;49.67;101650.78;5051522;28;20477;-76
2021/07/18 10:39:31;;;;;;;6.07;2.03;;;;;;;27.28;44.79;101677.06;5051700;28;20020;-76
2021/07/18 10:42:02;;;;;;;8.95;1.88;;;;;;;27.58;43.90;101648.38;5069308;28;20039;-77
2021/07/18 10:44:47;;;;;;;6.32;2.03;;;;;;;26.07;46.14;101645.38;5069262;28;20444;-76
2021/07/18 10:47:14;;;;;;;5.95;1.73;;;;;;;25.86;47.20;101648.78;5069058;28;20040;-76
2021/07/18 10:49:53;;;;;;;6.30;1.90;;;;;;;26.34;46.70;101650.28;5068529;28;20025;-76
2021/07/18 10:52:21;;;;;;;3.15;1.35;;;;;;;25.84;47.55;101643.53;5068545;28;20123;-77
2021/07/18 10:54:47;;;;;;;6.45;1.90;;;;;;;26.62;47.30;101652.16;5068439;28;20115;-76
2021/07/18 10:57:32;;;;;;;6.57;1.90;;;;;;;27.11;44.28;101666.09;5068929;28;20429;-76
2021/07/18 11:00:21;;;;;;;4.07;1.33;;;;;;;26.47;47.18;101647.22;5068700;28;20110;-76
2021/07/18 11:02:52;;;;;;;6.97;1.67;;;;;;;26.46;45.42;101647.47;5052666;28;20048;-76
2021/07/18 11:05:18;;;;;;;5.35;1.88;;;;;;;26.43;46.07;101646.03;5069279;28;20111;-76
2021/07/18 11:07:55;;;;;;;6.10;2.78;;;;;;;26.85;46.55;101653.91;5067644;28;20177;-76
2021/07/18 11:10:23;;;;;;;4.45;1.30;;;;;;;26.55;46.60;101647.91;5068510;28;20036;-76
2021/07/18 11:13:00;;;;;;;3.72;1.20;;;;;;;27.04;45.66;101650.91;5051390;28;20043;-76
2021/07/18 11:15:34;;;;;;;5.75;1.67;;;;;;;26.05;45.86;101633.84;5071678;28;20696;-77
2021/07/18 11:18:04;;;;;;;3.50;1.38;;;;;;;24.96;48.51;101633.66;5071714;28;20040;-77
2021/07/18 11:20:42;;;;;;;3.53;1.35;;;;;;;25.99;47.84;101634.00;5072455;28;20035;-75
2021/07/18 11:23:10;;;;;;;3.88;1.52;;;;;;;26.48;46.90;101640.66;5072638;28;20036;-76